sensor_id;sensor_type;location;lat;lon;timestamp;P1;durP1;ratioP1;P2;durP2;ratioP2
68825;SDS011;55841;53.392;10.086;2022-09-09T00:00:14;20.35;;;10.75;;
68825;SDS011;55841;53.392;10.086;2022-09-09T00:02:42;21.60;;;11.48;;
68825;SDS011;55841;53.392;10.086;2022-09-09T00:08:18;24.65;;;12.30;;
68825;SDS011;55841;53.392;10.086;2022-09-09T00:10:46;21.58;;;10.98;;
68825;SDS011;55841;53.392;10.086;2022-09-09T00:13:21;21.77;;;10.90;;
68825;SDS011;55841;53.392;10.086;2022-09-09T00:18:45;20.20;;;10.10;;
68825;SDS011;55841;53.392;10.086;2022-09-09T00:21:16;20.00;;;10.52;;
68825;SDS011;55841;53.392;10.086;2022-09-09T00:23:50;21.98;;;10.65;;
68825;SDS011;55841;53.392;10.086;2022-09-09T00:29:03;20.23;;;10.30;;
68825;SDS011;55841;53.392;10.086;2022-09-09T00:31:30;19.10;;;9.77;;
68825;SDS011;55841;53.392;10.086;2022-09-09T00:34:03;19.25;;;10.00;;
68825;SDS011;55841;53.392;10.086;2022-09-09T00:36:41;18.48;;;9.43;;
68825;SDS011;55841;53.392;10.086;2022-09-09T00:39:23;18.85;;;9.00;;
68825;SDS011;55841;53.392;10.086;2022-09-09T00:42:14;18.15;;;9.00;;
68825;SDS011;55841;53.392;10.086;2022-09-09T00:44:51;16.95;;;8.90;;
68825;SDS011;55841;53.392;10.086;2022-09-09T00:47:21;17.38;;;8.52;;
68825;SDS011;55841;53.392;10.086;2022-09-09T00:50:05;15.95;;;8.32;;
68825;SDS011;55841;53.392;10.086;2022-09-09T00:58:30;15.38;;;7.97;;
68825;SDS011;55841;53.392;10.086;2022-09-09T01:01:02;17.20;;;8.63;;
68825;SDS011;55841;53.392;10.086;2022-09-09T01:03:38;17.38;;;8.38;;
68825;SDS011;55841;53.392;10.086;2022-09-09T01:16:54;15.57;;;8.02;;
68825;SDS011;55841;53.392;10.086;2022-09-09T01:19:27;16.67;;;7.70;;
68825;SDS011;55841;53.392;10.086;2022-09-09T01:25:06;15.07;;;7.45;;
68825;SDS011;55841;53.392;10.086;2022-09-09T01:27:34;14.68;;;7.55;;
68825;SDS011;55841;53.392;10.086;2022-09-09T01:30:04;14.77;;;7.05;;
68825;SDS011;55841;53.392;10.086;2022-09-09T01:32:42;14.38;;;6.72;;
68825;SDS011;55841;53.392;10.086;2022-09-09T01:35:19;15.27;;;7.18;;
68825;SDS011;55841;53.392;10.086;2022-09-09T01:37:57;14.52;;;6.90;;
68825;SDS011;55841;53.392;10.086;2022-09-09T01:40:24;13.85;;;6.75;;
68825;SDS011;55841;53.392;10.086;2022-09-09T01:42:50;13.68;;;6.30;;
68825;SDS011;55841;53.392;10.086;2022-09-09T01:45:17;12.75;;;6.18;;
68825;SDS011;55841;53.392;10.086;2022-09-09T01:47:42;13.05;;;6.10;;
68825;SDS011;55841;53.392;10.086;2022-09-09T01:50:09;12.32;;;5.78;;
68825;SDS011;55841;53.392;10.086;2022-09-09T01:52:36;13.20;;;6.05;;
68825;SDS011;55841;53.392;10.086;2022-09-09T01:55:02;14.85;;;7.07;;
68825;SDS011;55841;53.392;10.086;2022-09-09T02:00:24;13.40;;;6.20;;
68825;SDS011;55841;53.392;10.086;2022-09-09T02:03:12;13.80;;;7.03;;
68825;SDS011;55841;53.392;10.086;2022-09-09T02:06:03;15.02;;;7.22;;
68825;SDS011;55841;53.392;10.086;2022-09-09T02:08:53;15.85;;;7.10;;
68825;SDS011;55841;53.392;10.086;2022-09-09T02:11:22;13.73;;;6.50;;
68825;SDS011;55841;53.392;10.086;2022-09-09T02:13:51;16.20;;;7.32;;
68825;SDS011;55841;53.392;10.086;2022-09-09T02:16:40;13.98;;;6.43;;
68825;SDS011;55841;53.392;10.086;2022-09-09T02:21:44;13.05;;;5.70;;
68825;SDS011;55841;53.392;10.086;2022-09-09T02:24:12;12.77;;;5.38;;
68825;SDS011;55841;53.392;10.086;2022-09-09T02:26:41;13.23;;;5.57;;
68825;SDS011;55841;53.392;10.086;2022-09-09T02:29:16;12.52;;;5.43;;
68825;SDS011;55841;53.392;10.086;2022-09-09T02:31:50;12.38;;;5.68;;
68825;SDS011;55841;53.392;10.086;2022-09-09T02:34:17;12.30;;;5.45;;
68825;SDS011;55841;53.392;10.086;2022-09-09T02:36:45;12.82;;;5.60;;
68825;SDS011;55841;53.392;10.086;2022-09-09T02:39:12;13.30;;;6.40;;
68825;SDS011;55841;53.392;10.086;2022-09-09T02:41:41;11.35;;;5.07;;
68825;SDS011;55841;53.392;10.086;2022-09-09T02:44:14;11.40;;;5.47;;
68825;SDS011;55841;53.392;10.086;2022-09-09T02:49:17;10.35;;;4.78;;
68825;SDS011;55841;53.392;10.086;2022-09-09T02:52:00;10.55;;;4.75;;
68825;SDS011;55841;53.392;10.086;2022-09-09T02:54:31;12.52;;;4.63;;
68825;SDS011;55841;53.392;10.086;2022-09-09T02:57:10;9.93;;;4.10;;
68825;SDS011;55841;53.392;10.086;2022-09-09T02:59:42;12.25;;;4.57;;
68825;SDS011;55841;53.392;10.086;2022-09-09T03:02:10;11.18;;;4.30;;
68825;SDS011;55841;53.392;10.086;2022-09-09T03:04:39;11.80;;;4.90;;
68825;SDS011;55841;53.392;10.086;2022-09-09T03:07:05;11.35;;;5.03;;
68825;SDS011;55841;53.392;10.086;2022-09-09T03:09:31;10.63;;;4.28;;
68825;SDS011;55841;53.392;10.086;2022-09-09T03:11:56;11.40;;;4.82;;
68825;SDS011;55841;53.392;10.086;2022-09-09T03:14:22;11.10;;;4.75;;
68825;SDS011;55841;53.392;10.086;2022-09-09T03:16:48;11.80;;;4.85;;
68825;SDS011;55841;53.392;10.086;2022-09-09T03:19:13;13.27;;;5.18;;
68825;SDS011;55841;53.392;10.086;2022-09-09T03:21:39;14.60;;;5.85;;
68825;SDS011;55841;53.392;10.086;2022-09-09T03:24:05;13.93;;;6.22;;
68825;SDS011;55841;53.392;10.086;2022-09-09T03:26:30;19.80;;;6.55;;
68825;SDS011;55841;53.392;10.086;2022-09-09T03:28:56;12.98;;;5.75;;
68825;SDS011;55841;53.392;10.086;2022-09-09T03:31:21;14.20;;;5.95;;
68825;SDS011;55841;53.392;10.086;2022-09-09T03:33:47;13.13;;;6.35;;
68825;SDS011;55841;53.392;10.086;2022-09-09T03:36:12;14.60;;;6.97;;
68825;SDS011;55841;53.392;10.086;2022-09-09T03:38:39;15.02;;;5.97;;
68825;SDS011;55841;53.392;10.086;2022-09-09T03:41:04;13.73;;;5.95;;
68825;SDS011;55841;53.392;10.086;2022-09-09T03:43:30;12.75;;;5.90;;
68825;SDS011;55841;53.392;10.086;2022-09-09T03:45:55;13.55;;;6.28;;
68825;SDS011;55841;53.392;10.086;2022-09-09T03:48:21;11.75;;;5.30;;
68825;SDS011;55841;53.392;10.086;2022-09-09T03:50:47;12.68;;;5.93;;
68825;SDS011;55841;53.392;10.086;2022-09-09T03:53:15;13.82;;;6.00;;
68825;SDS011;55841;53.392;10.086;2022-09-09T03:55:46;14.30;;;6.07;;
68825;SDS011;55841;53.392;10.086;2022-09-09T03:58:15;14.40;;;6.18;;
68825;SDS011;55841;53.392;10.086;2022-09-09T04:00:41;13.20;;;5.70;;
68825;SDS011;55841;53.392;10.086;2022-09-09T04:03:08;12.48;;;5.50;;
68825;SDS011;55841;53.392;10.086;2022-09-09T04:05:34;12.65;;;5.75;;
68825;SDS011;55841;53.392;10.086;2022-09-09T04:08:00;12.45;;;5.60;;
68825;SDS011;55841;53.392;10.086;2022-09-09T04:10:26;12.48;;;5.75;;
68825;SDS011;55841;53.392;10.086;2022-09-09T04:12:51;15.25;;;6.05;;
68825;SDS011;55841;53.392;10.086;2022-09-09T04:15:17;13.10;;;5.80;;
68825;SDS011;55841;53.392;10.086;2022-09-09T04:17:42;12.38;;;5.43;;
68825;SDS011;55841;53.392;10.086;2022-09-09T04:20:08;13.25;;;6.35;;
68825;SDS011;55841;53.392;10.086;2022-09-09T04:22:33;12.73;;;6.10;;
68825;SDS011;55841;53.392;10.086;2022-09-09T04:24:59;12.65;;;6.10;;
68825;SDS011;55841;53.392;10.086;2022-09-09T04:27:24;13.43;;;6.15;;
68825;SDS011;55841;53.392;10.086;2022-09-09T04:29:49;12.88;;;6.03;;
68825;SDS011;55841;53.392;10.086;2022-09-09T04:32:15;12.38;;;5.78;;
68825;SDS011;55841;53.392;10.086;2022-09-09T04:34:40;13.18;;;5.53;;
68825;SDS011;55841;53.392;10.086;2022-09-09T04:37:06;12.02;;;4.88;;
68825;SDS011;55841;53.392;10.086;2022-09-09T04:39:31;11.43;;;5.30;;
68825;SDS011;55841;53.392;10.086;2022-09-09T04:41:57;13.18;;;5.70;;
68825;SDS011;55841;53.392;10.086;2022-09-09T04:44:22;11.57;;;5.38;;
68825;SDS011;55841;53.392;10.086;2022-09-09T04:46:48;11.32;;;5.32;;
68825;SDS011;55841;53.392;10.086;2022-09-09T04:49:13;16.10;;;5.80;;
68825;SDS011;55841;53.392;10.086;2022-09-09T04:51:39;12.80;;;5.60;;
68825;SDS011;55841;53.392;10.086;2022-09-09T04:54:04;13.13;;;5.60;;
68825;SDS011;55841;53.392;10.086;2022-09-09T04:56:30;14.68;;;5.40;;
68825;SDS011;55841;53.392;10.086;2022-09-09T04:58:55;13.70;;;5.57;;
68825;SDS011;55841;53.392;10.086;2022-09-09T05:01:21;14.13;;;6.05;;
68825;SDS011;55841;53.392;10.086;2022-09-09T05:03:48;13.63;;;5.63;;
68825;SDS011;55841;53.392;10.086;2022-09-09T05:06:15;13.55;;;5.50;;
68825;SDS011;55841;53.392;10.086;2022-09-09T05:08:45;13.80;;;5.18;;
68825;SDS011;55841;53.392;10.086;2022-09-09T05:11:18;12.57;;;5.65;;
68825;SDS011;55841;53.392;10.086;2022-09-09T05:13:45;12.10;;;5.80;;
68825;SDS011;55841;53.392;10.086;2022-09-09T05:16:12;12.98;;;5.70;;
68825;SDS011;55841;53.392;10.086;2022-09-09T05:18:39;14.80;;;5.95;;
68825;SDS011;55841;53.392;10.086;2022-09-09T05:21:05;13.15;;;5.80;;
68825;SDS011;55841;53.392;10.086;2022-09-09T05:23:31;13.80;;;5.85;;
68825;SDS011;55841;53.392;10.086;2022-09-09T05:25:58;16.88;;;5.80;;
68825;SDS011;55841;53.392;10.086;2022-09-09T05:28:24;12.20;;;5.18;;
68825;SDS011;55841;53.392;10.086;2022-09-09T05:30:59;14.07;;;5.97;;
68825;SDS011;55841;53.392;10.086;2022-09-09T05:33:27;12.55;;;5.38;;
68825;SDS011;55841;53.392;10.086;2022-09-09T05:35:59;14.70;;;5.88;;
68825;SDS011;55841;53.392;10.086;2022-09-09T05:38:29;12.77;;;5.63;;
68825;SDS011;55841;53.392;10.086;2022-09-09T05:40:56;13.02;;;6.03;;
68825;SDS011;55841;53.392;10.086;2022-09-09T05:43:22;14.82;;;6.00;;
68825;SDS011;55841;53.392;10.086;2022-09-09T05:45:48;12.60;;;5.85;;
68825;SDS011;55841;53.392;10.086;2022-09-09T05:48:23;14.55;;;5.53;;
68825;SDS011;55841;53.392;10.086;2022-09-09T05:50:52;12.85;;;5.80;;
68825;SDS011;55841;53.392;10.086;2022-09-09T05:53:18;12.02;;;5.55;;
68825;SDS011;55841;53.392;10.086;2022-09-09T05:55:44;12.70;;;5.70;;
68825;SDS011;55841;53.392;10.086;2022-09-09T05:58:12;13.45;;;5.60;;
68825;SDS011;55841;53.392;10.086;2022-09-09T06:00:38;13.10;;;5.63;;
68825;SDS011;55841;53.392;10.086;2022-09-09T06:03:03;14.15;;;6.22;;
68825;SDS011;55841;53.392;10.086;2022-09-09T06:05:29;11.88;;;5.00;;
68825;SDS011;55841;53.392;10.086;2022-09-09T06:07:54;11.48;;;4.93;;
68825;SDS011;55841;53.392;10.086;2022-09-09T06:10:20;11.20;;;4.25;;
68825;SDS011;55841;53.392;10.086;2022-09-09T06:12:45;9.98;;;4.10;;
68825;SDS011;55841;53.392;10.086;2022-09-09T06:15:13;10.05;;;3.75;;
68825;SDS011;55841;53.392;10.086;2022-09-09T06:17:39;10.60;;;3.38;;
68825;SDS011;55841;53.392;10.086;2022-09-09T06:20:05;8.75;;;2.95;;
68825;SDS011;55841;53.392;10.086;2022-09-09T06:22:31;9.05;;;3.28;;
68825;SDS011;55841;53.392;10.086;2022-09-09T06:24:56;8.77;;;3.25;;
68825;SDS011;55841;53.392;10.086;2022-09-09T06:27:22;8.98;;;2.95;;
68825;SDS011;55841;53.392;10.086;2022-09-09T06:29:47;9.10;;;2.95;;
68825;SDS011;55841;53.392;10.086;2022-09-09T07:16:48;8.38;;;2.58;;
68825;SDS011;55841;53.392;10.086;2022-09-09T07:19:14;9.02;;;2.65;;
68825;SDS011;55841;53.392;10.086;2022-09-09T07:21:40;8.00;;;2.55;;
68825;SDS011;55841;53.392;10.086;2022-09-09T07:24:05;9.20;;;2.85;;
68825;SDS011;55841;53.392;10.086;2022-09-09T07:26:31;6.47;;;2.42;;
68825;SDS011;55841;53.392;10.086;2022-09-09T07:28:56;9.27;;;2.40;;
68825;SDS011;55841;53.392;10.086;2022-09-09T07:31:23;8.45;;;2.10;;
68825;SDS011;55841;53.392;10.086;2022-09-09T07:33:52;7.82;;;2.42;;
68825;SDS011;55841;53.392;10.086;2022-09-09T07:36:39;7.82;;;2.20;;
68825;SDS011;55841;53.392;10.086;2022-09-09T07:39:08;7.40;;;2.40;;
68825;SDS011;55841;53.392;10.086;2022-09-09T07:46:46;5.53;;;2.55;;
68825;SDS011;55841;53.392;10.086;2022-09-09T08:03:09;7.25;;;2.50;;
68825;SDS011;55841;53.392;10.086;2022-09-09T08:05:35;6.32;;;2.00;;
68825;SDS011;55841;53.392;10.086;2022-09-09T08:08:13;7.47;;;3.00;;
68825;SDS011;55841;53.392;10.086;2022-09-09T09:01:57;5.07;;;1.95;;
68825;SDS011;55841;53.392;10.086;2022-09-09T09:27:40;7.38;;;1.60;;
68825;SDS011;55841;53.392;10.086;2022-09-09T09:30:23;4.47;;;1.63;;
68825;SDS011;55841;53.392;10.086;2022-09-09T09:35:27;6.90;;;2.17;;
68825;SDS011;55841;53.392;10.086;2022-09-09T09:37:53;5.38;;;1.70;;
68825;SDS011;55841;53.392;10.086;2022-09-09T09:59:19;7.25;;;1.75;;
68825;SDS011;55841;53.392;10.086;2022-09-09T10:04:22;4.60;;;1.20;;
68825;SDS011;55841;53.392;10.086;2022-09-09T10:06:50;3.97;;;1.30;;
68825;SDS011;55841;53.392;10.086;2022-09-09T10:41:52;5.55;;;1.63;;
68825;SDS011;55841;53.392;10.086;2022-09-09T10:53:21;5.05;;;1.75;;
68825;SDS011;55841;53.392;10.086;2022-09-09T10:55:48;7.47;;;1.65;;
68825;SDS011;55841;53.392;10.086;2022-09-09T10:58:19;5.78;;;1.60;;
68825;SDS011;55841;53.392;10.086;2022-09-09T11:00:49;8.27;;;1.73;;
68825;SDS011;55841;53.392;10.086;2022-09-09T11:03:30;5.72;;;1.38;;
68825;SDS011;55841;53.392;10.086;2022-09-09T11:06:11;4.25;;;1.40;;
68825;SDS011;55841;53.392;10.086;2022-09-09T11:08:39;5.18;;;1.50;;
68825;SDS011;55841;53.392;10.086;2022-09-09T11:11:19;6.03;;;1.70;;
68825;SDS011;55841;53.392;10.086;2022-09-09T11:19:24;3.25;;;1.35;;
68825;SDS011;55841;53.392;10.086;2022-09-09T11:21:59;2.80;;;1.17;;
68825;SDS011;55841;53.392;10.086;2022-09-09T11:24:53;4.60;;;1.50;;
68825;SDS011;55841;53.392;10.086;2022-09-09T12:47:57;6.32;;;1.70;;
68825;SDS011;55841;53.392;10.086;2022-09-09T13:35:23;8.02;;;2.67;;
68825;SDS011;55841;53.392;10.086;2022-09-09T13:37:49;7.25;;;2.50;;
68825;SDS011;55841;53.392;10.086;2022-09-09T13:40:18;8.10;;;2.60;;
68825;SDS011;55841;53.392;10.086;2022-09-09T13:42:45;7.72;;;2.80;;
68825;SDS011;55841;53.392;10.086;2022-09-09T13:45:18;8.07;;;2.58;;
68825;SDS011;55841;53.392;10.086;2022-09-09T13:47:45;5.97;;;2.33;;
68825;SDS011;55841;53.392;10.086;2022-09-09T13:50:25;8.82;;;2.60;;
68825;SDS011;55841;53.392;10.086;2022-09-09T13:52:52;8.70;;;2.50;;
68825;SDS011;55841;53.392;10.086;2022-09-09T13:55:20;8.07;;;2.50;;
68825;SDS011;55841;53.392;10.086;2022-09-09T14:00:16;7.45;;;2.45;;
68825;SDS011;55841;53.392;10.086;2022-09-09T14:02:41;7.32;;;2.30;;
68825;SDS011;55841;53.392;10.086;2022-09-09T14:05:07;4.20;;;1.85;;
68825;SDS011;55841;53.392;10.086;2022-09-09T14:07:33;6.55;;;2.10;;
68825;SDS011;55841;53.392;10.086;2022-09-09T14:09:58;5.50;;;1.95;;
68825;SDS011;55841;53.392;10.086;2022-09-09T14:12:24;5.82;;;1.77;;
68825;SDS011;55841;53.392;10.086;2022-09-09T14:14:49;4.47;;;1.80;;
68825;SDS011;55841;53.392;10.086;2022-09-09T14:17:15;3.58;;;1.60;;
68825;SDS011;55841;53.392;10.086;2022-09-09T14:19:41;3.53;;;1.50;;
68825;SDS011;55841;53.392;10.086;2022-09-09T14:22:06;6.18;;;1.52;;
68825;SDS011;55841;53.392;10.086;2022-09-09T14:24:32;4.35;;;1.77;;
68825;SDS011;55841;53.392;10.086;2022-09-09T14:26:57;6.30;;;1.83;;
68825;SDS011;55841;53.392;10.086;2022-09-09T14:29:23;3.80;;;1.63;;
68825;SDS011;55841;53.392;10.086;2022-09-09T14:31:48;5.38;;;1.70;;
68825;SDS011;55841;53.392;10.086;2022-09-09T14:34:14;5.78;;;1.75;;
68825;SDS011;55841;53.392;10.086;2022-09-09T14:36:40;4.18;;;1.77;;
68825;SDS011;55841;53.392;10.086;2022-09-09T14:39:05;5.28;;;1.70;;
68825;SDS011;55841;53.392;10.086;2022-09-09T14:41:31;6.78;;;1.77;;
68825;SDS011;55841;53.392;10.086;2022-09-09T14:43:56;9.90;;;2.08;;
68825;SDS011;55841;53.392;10.086;2022-09-09T14:46:22;4.60;;;1.65;;
68825;SDS011;55841;53.392;10.086;2022-09-09T14:48:48;5.18;;;1.80;;
68825;SDS011;55841;53.392;10.086;2022-09-09T14:51:15;4.63;;;1.70;;
68825;SDS011;55841;53.392;10.086;2022-09-09T14:53:52;6.25;;;1.90;;
68825;SDS011;55841;53.392;10.086;2022-09-09T14:56:23;6.38;;;2.00;;
68825;SDS011;55841;53.392;10.086;2022-09-09T14:58:52;6.90;;;2.03;;
68825;SDS011;55841;53.392;10.086;2022-09-09T15:01:19;4.72;;;1.70;;
68825;SDS011;55841;53.392;10.086;2022-09-09T15:06:15;6.35;;;1.65;;
68825;SDS011;55841;53.392;10.086;2022-09-09T15:08:41;4.45;;;1.50;;
68825;SDS011;55841;53.392;10.086;2022-09-09T15:11:08;7.95;;;1.65;;
68825;SDS011;55841;53.392;10.086;2022-09-09T15:13:35;3.40;;;1.42;;
68825;SDS011;55841;53.392;10.086;2022-09-09T15:16:05;5.85;;;1.50;;
68825;SDS011;55841;53.392;10.086;2022-09-09T15:18:33;3.97;;;1.48;;
68825;SDS011;55841;53.392;10.086;2022-09-09T15:20:59;4.90;;;1.55;;
68825;SDS011;55841;53.392;10.086;2022-09-09T15:25:54;3.63;;;1.40;;
68825;SDS011;55841;53.392;10.086;2022-09-09T15:28:20;4.22;;;1.38;;
68825;SDS011;55841;53.392;10.086;2022-09-09T15:30:49;3.08;;;1.27;;
68825;SDS011;55841;53.392;10.086;2022-09-09T15:33:16;1.70;;;1.00;;
68825;SDS011;55841;53.392;10.086;2022-09-09T15:35:42;5.35;;;1.45;;
68825;SDS011;55841;53.392;10.086;2022-09-09T15:38:08;3.80;;;1.30;;
68825;SDS011;55841;53.392;10.086;2022-09-09T15:40:33;3.35;;;1.35;;
68825;SDS011;55841;53.392;10.086;2022-09-09T15:42:59;5.28;;;1.40;;
68825;SDS011;55841;53.392;10.086;2022-09-09T15:45:24;4.68;;;1.10;;
68825;SDS011;55841;53.392;10.086;2022-09-09T15:47:50;3.33;;;1.30;;
68825;SDS011;55841;53.392;10.086;2022-09-09T15:50:15;3.20;;;1.10;;
68825;SDS011;55841;53.392;10.086;2022-09-09T15:52:41;4.55;;;1.40;;
68825;SDS011;55841;53.392;10.086;2022-09-09T15:55:06;4.75;;;1.35;;
68825;SDS011;55841;53.392;10.086;2022-09-09T15:57:32;3.53;;;1.42;;
68825;SDS011;55841;53.392;10.086;2022-09-09T15:59:57;6.07;;;1.50;;
68825;SDS011;55841;53.392;10.086;2022-09-09T16:02:23;5.13;;;1.50;;
68825;SDS011;55841;53.392;10.086;2022-09-09T16:04:48;2.90;;;1.25;;
68825;SDS011;55841;53.392;10.086;2022-09-09T16:07:15;4.72;;;1.60;;
68825;SDS011;55841;53.392;10.086;2022-09-09T16:09:41;6.35;;;1.67;;
68825;SDS011;55841;53.392;10.086;2022-09-09T16:12:06;4.25;;;1.38;;
68825;SDS011;55841;53.392;10.086;2022-09-09T16:14:32;8.35;;;1.52;;
68825;SDS011;55841;53.392;10.086;2022-09-09T16:16:57;4.35;;;1.52;;
68825;SDS011;55841;53.392;10.086;2022-09-09T16:19:23;5.68;;;1.40;;
68825;SDS011;55841;53.392;10.086;2022-09-09T16:21:48;4.78;;;1.52;;
68825;SDS011;55841;53.392;10.086;2022-09-09T16:26:42;4.43;;;1.58;;
68825;SDS011;55841;53.392;10.086;2022-09-09T16:29:09;5.45;;;1.50;;
68825;SDS011;55841;53.392;10.086;2022-09-09T16:31:34;5.57;;;1.92;;
68825;SDS011;55841;53.392;10.086;2022-09-09T16:34:00;5.32;;;1.60;;
68825;SDS011;55841;53.392;10.086;2022-09-09T16:36:26;4.13;;;1.42;;
68825;SDS011;55841;53.392;10.086;2022-09-09T16:39:00;4.53;;;1.40;;
68825;SDS011;55841;53.392;10.086;2022-09-09T16:41:29;7.53;;;1.60;;
68825;SDS011;55841;53.392;10.086;2022-09-09T16:46:21;3.72;;;1.60;;
68825;SDS011;55841;53.392;10.086;2022-09-09T16:48:48;3.92;;;1.38;;
68825;SDS011;55841;53.392;10.086;2022-09-09T16:51:15;2.95;;;1.40;;
68825;SDS011;55841;53.392;10.086;2022-09-09T16:53:43;8.35;;;1.80;;
68825;SDS011;55841;53.392;10.086;2022-09-09T16:56:10;4.55;;;1.45;;
68825;SDS011;55841;53.392;10.086;2022-09-09T16:58:38;5.88;;;1.38;;
68825;SDS011;55841;53.392;10.086;2022-09-09T17:01:03;6.43;;;1.70;;
68825;SDS011;55841;53.392;10.086;2022-09-09T17:03:30;4.28;;;1.55;;
68825;SDS011;55841;53.392;10.086;2022-09-09T17:08:21;5.30;;;1.70;;
68825;SDS011;55841;53.392;10.086;2022-09-09T17:10:47;4.28;;;1.55;;
68825;SDS011;55841;53.392;10.086;2022-09-09T17:13:12;6.35;;;2.10;;
68825;SDS011;55841;53.392;10.086;2022-09-09T17:15:41;5.18;;;1.98;;
68825;SDS011;55841;53.392;10.086;2022-09-09T17:18:08;6.40;;;2.00;;
68825;SDS011;55841;53.392;10.086;2022-09-09T17:20:35;6.10;;;2.03;;
68825;SDS011;55841;53.392;10.086;2022-09-09T17:23:01;5.18;;;2.10;;
68825;SDS011;55841;53.392;10.086;2022-09-09T17:25:27;7.25;;;2.33;;
68825;SDS011;55841;53.392;10.086;2022-09-09T17:27:52;6.05;;;2.30;;
68825;SDS011;55841;53.392;10.086;2022-09-09T17:30:18;5.55;;;1.90;;
68825;SDS011;55841;53.392;10.086;2022-09-09T17:32:43;6.80;;;2.35;;
68825;SDS011;55841;53.392;10.086;2022-09-09T17:35:09;7.45;;;2.20;;
68825;SDS011;55841;53.392;10.086;2022-09-09T17:37:34;4.95;;;1.92;;
68825;SDS011;55841;53.392;10.086;2022-09-09T17:40:00;6.65;;;2.20;;
68825;SDS011;55841;53.392;10.086;2022-09-09T17:42:26;6.38;;;2.00;;
68825;SDS011;55841;53.392;10.086;2022-09-09T17:44:51;4.00;;;1.80;;
68825;SDS011;55841;53.392;10.086;2022-09-09T17:47:17;7.20;;;2.25;;
68825;SDS011;55841;53.392;10.086;2022-09-09T17:49:42;7.00;;;2.03;;
68825;SDS011;55841;53.392;10.086;2022-09-09T17:52:08;7.60;;;2.63;;
68825;SDS011;55841;53.392;10.086;2022-09-09T17:54:33;8.85;;;2.67;;
68825;SDS011;55841;53.392;10.086;2022-09-09T17:56:59;8.00;;;3.17;;
68825;SDS011;55841;53.392;10.086;2022-09-09T17:59:24;9.45;;;2.63;;
68825;SDS011;55841;53.392;10.086;2022-09-09T18:01:50;8.15;;;2.90;;
68825;SDS011;55841;53.392;10.086;2022-09-09T18:04:16;9.40;;;2.72;;
68825;SDS011;55841;53.392;10.086;2022-09-09T18:06:42;8.25;;;2.95;;
68825;SDS011;55841;53.392;10.086;2022-09-09T18:09:13;7.85;;;2.80;;
68825;SDS011;55841;53.392;10.086;2022-09-09T18:11:44;10.93;;;2.90;;
68825;SDS011;55841;53.392;10.086;2022-09-09T18:14:14;8.30;;;2.72;;
68825;SDS011;55841;53.392;10.086;2022-09-09T18:16:41;8.07;;;2.90;;
68825;SDS011;55841;53.392;10.086;2022-09-09T18:19:07;8.50;;;3.25;;
68825;SDS011;55841;53.392;10.086;2022-09-09T18:21:35;8.70;;;2.92;;
68825;SDS011;55841;53.392;10.086;2022-09-09T18:24:01;8.73;;;3.03;;
68825;SDS011;55841;53.392;10.086;2022-09-09T18:26:28;9.43;;;2.70;;
68825;SDS011;55841;53.392;10.086;2022-09-09T18:28:55;8.27;;;2.95;;
68825;SDS011;55841;53.392;10.086;2022-09-09T18:31:23;7.05;;;2.42;;
68825;SDS011;55841;53.392;10.086;2022-09-09T18:33:50;6.97;;;2.50;;
68825;SDS011;55841;53.392;10.086;2022-09-09T18:36:17;7.70;;;2.70;;
68825;SDS011;55841;53.392;10.086;2022-09-09T18:38:45;9.00;;;2.60;;
68825;SDS011;55841;53.392;10.086;2022-09-09T18:41:14;7.18;;;2.70;;
68825;SDS011;55841;53.392;10.086;2022-09-09T18:43:44;6.25;;;2.55;;
68825;SDS011;55841;53.392;10.086;2022-09-09T18:46:10;9.32;;;2.90;;
68825;SDS011;55841;53.392;10.086;2022-09-09T18:48:36;5.50;;;2.33;;
68825;SDS011;55841;53.392;10.086;2022-09-09T18:53:29;5.80;;;2.17;;
68825;SDS011;55841;53.392;10.086;2022-09-09T18:55:58;6.60;;;2.70;;
68825;SDS011;55841;53.392;10.086;2022-09-09T18:58:27;7.30;;;2.63;;
68825;SDS011;55841;53.392;10.086;2022-09-09T19:00:53;6.95;;;2.83;;
68825;SDS011;55841;53.392;10.086;2022-09-09T19:03:19;7.75;;;2.90;;
68825;SDS011;55841;53.392;10.086;2022-09-09T19:05:45;7.30;;;2.60;;
68825;SDS011;55841;53.392;10.086;2022-09-09T19:08:10;11.77;;;3.10;;
68825;SDS011;55841;53.392;10.086;2022-09-09T19:10:36;9.65;;;2.85;;
68825;SDS011;55841;53.392;10.086;2022-09-09T19:13:01;10.85;;;3.17;;
68825;SDS011;55841;53.392;10.086;2022-09-09T19:15:27;10.25;;;3.88;;
68825;SDS011;55841;53.392;10.086;2022-09-09T19:17:52;12.40;;;3.78;;
68825;SDS011;55841;53.392;10.086;2022-09-09T19:20:18;9.48;;;3.35;;
68825;SDS011;55841;53.392;10.086;2022-09-09T19:22:43;14.73;;;4.13;;
68825;SDS011;55841;53.392;10.086;2022-09-09T19:25:09;9.50;;;3.90;;
68825;SDS011;55841;53.392;10.086;2022-09-09T19:27:34;9.57;;;4.10;;
68825;SDS011;55841;53.392;10.086;2022-09-09T19:30:00;9.07;;;3.88;;
68825;SDS011;55841;53.392;10.086;2022-09-09T19:32:25;11.43;;;4.55;;
68825;SDS011;55841;53.392;10.086;2022-09-09T19:34:51;10.50;;;4.22;;
68825;SDS011;55841;53.392;10.086;2022-09-09T19:37:16;11.90;;;4.75;;
68825;SDS011;55841;53.392;10.086;2022-09-09T19:39:42;10.68;;;4.30;;
68825;SDS011;55841;53.392;10.086;2022-09-09T19:42:07;11.52;;;5.10;;
68825;SDS011;55841;53.392;10.086;2022-09-09T19:44:33;11.90;;;4.55;;
68825;SDS011;55841;53.392;10.086;2022-09-09T19:46:58;11.90;;;4.65;;
68825;SDS011;55841;53.392;10.086;2022-09-09T19:49:24;9.50;;;4.38;;
68825;SDS011;55841;53.392;10.086;2022-09-09T19:51:50;10.70;;;4.55;;
68825;SDS011;55841;53.392;10.086;2022-09-09T19:54:15;10.02;;;4.18;;
68825;SDS011;55841;53.392;10.086;2022-09-09T19:56:41;18.02;;;4.95;;
68825;SDS011;55841;53.392;10.086;2022-09-09T19:59:07;14.70;;;4.75;;
68825;SDS011;55841;53.392;10.086;2022-09-09T20:01:35;10.27;;;4.03;;
68825;SDS011;55841;53.392;10.086;2022-09-09T20:04:03;10.90;;;3.95;;
68825;SDS011;55841;53.392;10.086;2022-09-09T20:06:30;11.05;;;3.70;;
68825;SDS011;55841;53.392;10.086;2022-09-09T20:08:57;10.23;;;3.72;;
68825;SDS011;55841;53.392;10.086;2022-09-09T20:11:23;12.80;;;4.00;;
68825;SDS011;55841;53.392;10.086;2022-09-09T20:13:49;13.65;;;3.90;;
68825;SDS011;55841;53.392;10.086;2022-09-09T20:16:16;10.20;;;4.07;;
68825;SDS011;55841;53.392;10.086;2022-09-09T20:18:44;10.73;;;3.67;;
68825;SDS011;55841;53.392;10.086;2022-09-09T20:21:13;9.45;;;3.83;;
68825;SDS011;55841;53.392;10.086;2022-09-09T20:23:40;12.25;;;3.75;;
68825;SDS011;55841;53.392;10.086;2022-09-09T20:26:07;11.65;;;4.57;;
68825;SDS011;55841;53.392;10.086;2022-09-09T20:28:35;11.80;;;4.80;;
68825;SDS011;55841;53.392;10.086;2022-09-09T20:33:32;11.98;;;5.10;;
68825;SDS011;55841;53.392;10.086;2022-09-09T20:35:58;11.25;;;4.85;;
68825;SDS011;55841;53.392;10.086;2022-09-09T20:40:49;11.63;;;4.57;;
68825;SDS011;55841;53.392;10.086;2022-09-09T20:43:15;13.45;;;5.03;;
68825;SDS011;55841;53.392;10.086;2022-09-09T20:45:40;11.70;;;4.80;;
68825;SDS011;55841;53.392;10.086;2022-09-09T20:48:06;11.45;;;5.10;;
68825;SDS011;55841;53.392;10.086;2022-09-09T20:50:35;11.15;;;4.90;;
68825;SDS011;55841;53.392;10.086;2022-09-09T20:53:01;14.20;;;5.57;;
68825;SDS011;55841;53.392;10.086;2022-09-09T20:55:29;11.30;;;3.30;;
68825;SDS011;55841;53.392;10.086;2022-09-09T20:57:55;9.05;;;3.55;;
68825;SDS011;55841;53.392;10.086;2022-09-09T21:00:20;8.82;;;3.20;;
68825;SDS011;55841;53.392;10.086;2022-09-09T21:02:46;11.32;;;3.20;;
68825;SDS011;55841;53.392;10.086;2022-09-09T21:05:11;8.45;;;3.00;;